sensor_id;sensor_type;location;lat;lon;timestamp;pressure;altitude;pressure_sealevel;temperature;humidity
59487;BME280;45298;54.918;73.504;2022-07-22T00:00:18;98570.00;;;15.57;84.04
59487;BME280;45298;54.918;73.504;2022-07-22T00:02:49;98558.66;;;15.55;84.35
59487;BME280;45298;54.918;73.504;2022-07-22T00:05:18;98552.16;;;15.58;84.18
59487;BME280;45298;54.918;73.504;2022-07-22T00:07:47;98578.38;;;15.71;84.22
59487;BME280;45298;54.918;73.504;2022-07-22T00:10:16;98573.56;;;15.75;84.22
59487;BME280;45298;54.918;73.504;2022-07-22T00:12:45;98578.59;;;15.78;84.52
59487;BME280;45298;54.918;73.504;2022-07-22T00:15:14;98580.94;;;15.89;84.32
59487;BME280;45298;54.918;73.504;2022-07-22T00:17:42;98573.94;;;15.88;84.19
59487;BME280;45298;54.918;73.504;2022-07-22T00:20:11;98569.44;;;15.89;84.54
59487;BME280;45298;54.918;73.504;2022-07-22T00:22:40;98572.94;;;15.89;84.37
59487;BME280;45298;54.918;73.504;2022-07-22T00:25:09;98559.50;;;15.81;84.05
59487;BME280;45298;54.918;73.504;2022-07-22T00:27:38;98569.88;;;15.84;84.32
59487;BME280;45298;54.918;73.504;2022-07-22T00:30:07;98584.97;;;16.01;84.12
59487;BME280;45298;54.918;73.504;2022-07-22T00:32:37;98588.66;;;15.92;84.23
59487;BME280;45298;54.918;73.504;2022-07-22T00:35:06;98583.28;;;16.00;84.09
59487;BME280;45298;54.918;73.504;2022-07-22T00:37:35;98599.00;;;16.04;84.22
59487;BME280;45298;54.918;73.504;2022-07-22T00:40:04;98601.69;;;16.12;84.25
59487;BME280;45298;54.918;73.504;2022-07-22T00:42:34;98591.66;;;16.06;84.03
59487;BME280;45298;54.918;73.504;2022-07-22T00:45:04;98599.69;;;16.14;84.35
59487;BME280;45298;54.918;73.504;2022-07-22T00:47:35;98613.75;;;16.16;84.03
59487;BME280;45298;54.918;73.504;2022-07-22T00:50:05;98612.06;;;16.15;84.05
59487;BME280;45298;54.918;73.504;2022-07-22T00:52:34;98601.16;;;16.08;84.24
59487;BME280;45298;54.918;73.504;2022-07-22T00:55:04;98611.06;;;16.16;84.46
59487;BME280;45298;54.918;73.504;2022-07-22T00:57:34;98594.19;;;16.07;84.21
59487;BME280;45298;54.918;73.504;2022-07-22T01:00:06;98603.38;;;16.13;84.40
59487;BME280;45298;54.918;73.504;2022-07-22T01:02:36;98605.72;;;16.16;84.19
59487;BME280;45298;54.918;73.504;2022-07-22T01:05:05;98611.72;;;16.18;84.29
59487;BME280;45298;54.918;73.504;2022-07-22T01:07:36;98612.22;;;16.22;84.25
59487;BME280;45298;54.918;73.504;2022-07-22T01:10:07;98630.44;;;16.26;84.40
59487;BME280;45298;54.918;73.504;2022-07-22T01:12:36;98582.28;;;16.01;84.06
59487;BME280;45298;54.918;73.504;2022-07-22T01:15:05;98611.72;;;16.18;84.61
59487;BME280;45298;54.918;73.504;2022-07-22T01:17:34;98615.06;;;16.20;83.79
59487;BME280;45298;54.918;73.504;2022-07-22T01:20:06;98601.38;;;16.15;84.37
59487;BME280;45298;54.918;73.504;2022-07-22T01:22:35;98629.78;;;16.24;84.58
59487;BME280;45298;54.918;73.504;2022-07-22T01:25:04;98599.69;;;16.06;84.82
59487;BME280;45298;54.918;73.504;2022-07-22T01:27:33;98625.94;;;16.19;84.27
59487;BME280;45298;54.918;73.504;2022-07-22T01:30:04;98617.06;;;16.18;84.64
59487;BME280;45298;54.918;73.504;2022-07-22T01:32:33;98632.44;;;16.24;84.32
59487;BME280;45298;54.918;73.504;2022-07-22T01:35:04;98635.47;;;16.29;84.73
59487;BME280;45298;54.918;73.504;2022-07-22T01:37:33;98624.28;;;16.26;84.72
59487;BME280;45298;54.918;73.504;2022-07-22T01:40:04;98640.16;;;16.44;85.04
59487;BME280;45298;54.918;73.504;2022-07-22T01:42:33;98635.63;;;16.53;84.75
59487;BME280;45298;54.918;73.504;2022-07-22T01:45:02;98606.34;;;16.43;84.27
59487;BME280;45298;54.918;73.504;2022-07-22T01:47:31;98641.63;;;16.71;84.19
59487;BME280;45298;54.918;73.504;2022-07-22T01:50:00;98641.47;;;16.73;83.92
59487;BME280;45298;54.918;73.504;2022-07-22T01:52:29;98649.47;;;16.81;83.51
59487;BME280;45298;54.918;73.504;2022-07-22T01:54:59;98642.78;;;16.77;83.79
59487;BME280;45298;54.918;73.504;2022-07-22T01:57:28;98649.13;;;16.84;83.36
59487;BME280;45298;54.918;73.504;2022-07-22T01:59:59;98640.09;;;16.77;83.93
59487;BME280;45298;54.918;73.504;2022-07-22T02:02:30;98662.69;;;16.91;83.32
59487;BME280;45298;54.918;73.504;2022-07-22T02:04:58;98673.56;;;17.06;84.02
59487;BME280;45298;54.918;73.504;2022-07-22T02:07:27;98652.00;;;16.99;83.58
59487;BME280;45298;54.918;73.504;2022-07-22T02:09:56;98668.19;;;17.14;83.78
59487;BME280;45298;54.918;73.504;2022-07-22T02:12:24;98630.72;;;16.89;83.31
59487;BME280;45298;54.918;73.504;2022-07-22T02:14:53;98672.84;;;17.20;83.43
59487;BME280;45298;54.918;73.504;2022-07-22T02:17:22;98669.53;;;17.10;83.56
59487;BME280;45298;54.918;73.504;2022-07-22T02:19:51;98675.06;;;17.09;83.13
59487;BME280;45298;54.918;73.504;2022-07-22T02:22:20;98684.09;;;17.24;83.53
59487;BME280;45298;54.918;73.504;2022-07-22T02:24:49;98671.50;;;17.25;83.19
59487;BME280;45298;54.918;73.504;2022-07-22T02:27:18;98671.66;;;17.31;83.08
59487;BME280;45298;54.918;73.504;2022-07-22T02:29:46;98674.78;;;17.43;82.36
59487;BME280;45298;54.918;73.504;2022-07-22T02:32:15;98687.84;;;17.55;82.42
59487;BME280;45298;54.918;73.504;2022-07-22T02:34:44;98676.06;;;17.56;82.54
59487;BME280;45298;54.918;73.504;2022-07-22T02:37:13;98686.78;;;17.56;82.82
59487;BME280;45298;54.918;73.504;2022-07-22T02:39:42;98673.03;;;17.59;82.25
59487;BME280;45298;54.918;73.504;2022-07-22T02:42:12;98685.75;;;17.73;82.84
59487;BME280;45298;54.918;73.504;2022-07-22T02:44:42;98693.25;;;17.78;82.54
59487;BME280;45298;54.918;73.504;2022-07-22T02:47:10;98706.44;;;17.88;82.46
59487;BME280;45298;54.918;73.504;2022-07-22T02:49:39;98706.44;;;17.88;82.50
59487;BME280;45298;54.918;73.504;2022-07-22T02:52:08;98701.56;;;17.91;81.83
59487;BME280;45298;54.918;73.504;2022-07-22T02:54:37;98693.03;;;17.88;82.00
59487;BME280;45298;54.918;73.504;2022-07-22T02:57:06;98709.75;;;17.98;81.61
59487;BME280;45298;54.918;73.504;2022-07-22T02:59:35;98707.59;;;17.93;81.46
59487;BME280;45298;54.918;73.504;2022-07-22T03:02:04;98687.81;;;17.86;81.48
59487;BME280;45298;54.918;73.504;2022-07-22T03:04:33;98685.53;;;17.83;81.76
59487;BME280;45298;54.918;73.504;2022-07-22T03:07:02;98711.75;;;17.96;81.33
59487;BME280;45298;54.918;73.504;2022-07-22T03:09:32;98715.78;;;18.00;81.52
59487;BME280;45298;54.918;73.504;2022-07-22T03:12:01;98728.31;;;18.08;81.17
59487;BME280;45298;54.918;73.504;2022-07-22T03:14:30;98732.31;;;18.12;81.06
59487;BME280;45298;54.918;73.504;2022-07-22T03:16:59;98737.13;;;18.25;81.22
59487;BME280;45298;54.918;73.504;2022-07-22T03:19:27;98727.19;;;18.25;80.95
59487;BME280;45298;54.918;73.504;2022-07-22T03:21:57;98726.16;;;18.35;80.44
59487;BME280;45298;54.918;73.504;2022-07-22T03:24:25;98732.00;;;18.38;80.71
59487;BME280;45298;54.918;73.504;2022-07-22T03:26:54;98726.28;;;18.41;80.37
59487;BME280;45298;54.918;73.504;2022-07-22T03:29:25;98721.50;;;18.52;79.87
59487;BME280;45298;54.918;73.504;2022-07-22T03:31:54;98731.38;;;18.75;79.55
59487;BME280;45298;54.918;73.504;2022-07-22T03:34:37;98745.88;;;18.88;78.72
59487;BME280;45298;54.918;73.504;2022-07-22T03:37:07;98729.72;;;18.97;78.82
59487;BME280;45298;54.918;73.504;2022-07-22T03:39:36;98745.13;;;19.18;77.72
59487;BME280;45298;54.918;73.504;2022-07-22T03:42:05;98724.28;;;19.20;77.31
59487;BME280;45298;54.918;73.504;2022-07-22T03:44:42;98742.66;;;19.31;76.16
59487;BME280;45298;54.918;73.504;2022-07-22T03:47:12;98754.97;;;19.26;75.15
59487;BME280;45298;54.918;73.504;2022-07-22T03:49:41;98764.31;;;19.15;75.42
59487;BME280;45298;54.918;73.504;2022-07-22T03:52:12;98730.50;;;18.82;75.37
59487;BME280;45298;54.918;73.504;2022-07-22T03:54:44;98753.13;;;18.88;75.45
59487;BME280;45298;54.918;73.504;2022-07-22T03:57:13;98758.06;;;18.99;75.37
59487;BME280;45298;54.918;73.504;2022-07-22T03:59:44;98760.16;;;19.12;75.81
59487;BME280;45298;54.918;73.504;2022-07-22T04:02:13;98751.81;;;19.22;75.21
59487;BME280;45298;54.918;73.504;2022-07-22T04:04:42;98752.84;;;19.21;75.32
59487;BME280;45298;54.918;73.504;2022-07-22T04:07:11;98755.59;;;19.13;75.34
59487;BME280;45298;54.918;73.504;2022-07-22T04:09:41;98747.78;;;19.03;75.42
59487;BME280;45298;54.918;73.504;2022-07-22T04:12:10;98746.59;;;19.06;75.48
59487;BME280;45298;54.918;73.504;2022-07-22T04:14:58;98766.06;;;19.08;75.41
59487;BME280;45298;54.918;73.504;2022-07-22T04:17:27;98733.09;;;18.91;75.61
59487;BME280;45298;54.918;73.504;2022-07-22T04:19:56;98745.69;;;19.13;75.70
59487;BME280;45298;54.918;73.504;2022-07-22T04:22:31;98748.66;;;19.33;75.51
59487;BME280;45298;54.918;73.504;2022-07-22T04:25:01;98767.22;;;19.58;74.78
59487;BME280;45298;54.918;73.504;2022-07-22T04:27:29;98764.19;;;19.91;73.50
59487;BME280;45298;54.918;73.504;2022-07-22T04:29:58;98753.75;;;20.18;72.33
59487;BME280;45298;54.918;73.504;2022-07-22T04:32:29;98759.16;;;20.40;71.59
59487;BME280;45298;54.918;73.504;2022-07-22T04:34:58;98742.50;;;20.30;71.24
59487;BME280;45298;54.918;73.504;2022-07-22T04:37:29;98775.97;;;20.79;69.96
59487;BME280;45298;54.918;73.504;2022-07-22T04:39:58;98776.25;;;20.91;70.12
59487;BME280;45298;54.918;73.504;2022-07-22T04:42:31;98773.06;;;20.80;69.30
59487;BME280;45298;54.918;73.504;2022-07-22T04:45:00;98770.25;;;20.89;68.61
59487;BME280;45298;54.918;73.504;2022-07-22T04:47:36;98776.88;;;21.14;68.09
59487;BME280;45298;54.918;73.504;2022-07-22T04:50:06;98775.88;;;21.51;67.14
59487;BME280;45298;54.918;73.504;2022-07-22T04:52:37;98772.13;;;21.80;66.35
59487;BME280;45298;54.918;73.504;2022-07-22T04:55:15;98783.72;;;22.16;66.02
59487;BME280;45298;54.918;73.504;2022-07-22T04:57:46;98779.44;;;22.35;64.78
59487;BME280;45298;54.918;73.504;2022-07-22T05:00:17;98791.69;;;22.38;65.23
59487;BME280;45298;54.918;73.504;2022-07-22T05:02:52;98788.50;;;22.14;64.53
59487;BME280;45298;54.918;73.504;2022-07-22T05:05:21;98795.03;;;21.91;64.43
59487;BME280;45298;54.918;73.504;2022-07-22T05:07:52;98778.59;;;21.57;64.95
59487;BME280;45298;54.918;73.504;2022-07-22T05:10:21;98790.84;;;21.82;65.51
59487;BME280;45298;54.918;73.504;2022-07-22T05:12:51;98804.28;;;22.17;65.98
59487;BME280;45298;54.918;73.504;2022-07-22T05:15:24;98797.38;;;22.43;63.05
59487;BME280;45298;54.918;73.504;2022-07-22T05:17:53;98775.78;;;22.70;60.30
59487;BME280;45298;54.918;73.504;2022-07-22T05:20:26;98783.72;;;22.85;61.95
59487;BME280;45298;54.918;73.504;2022-07-22T05:22:56;98799.06;;;22.57;61.84
59487;BME280;45298;54.918;73.504;2022-07-22T05:25:28;98803.13;;;22.33;62.93
59487;BME280;45298;54.918;73.504;2022-07-22T05:27:57;98791.13;;;22.49;63.52
59487;BME280;45298;54.918;73.504;2022-07-22T05:30:30;98806.16;;;22.78;62.68
59487;BME280;45298;54.918;73.504;2022-07-22T05:33:01;98792.03;;;22.97;61.28
59487;BME280;45298;54.918;73.504;2022-07-22T05:35:49;98802.91;;;23.37;60.20
59487;BME280;45298;54.918;73.504;2022-07-22T05:38:19;98787.47;;;23.58;59.96
59487;BME280;45298;54.918;73.504;2022-07-22T05:40:48;98800.34;;;23.62;58.56
59487;BME280;45298;54.918;73.504;2022-07-22T05:43:17;98807.66;;;23.62;58.66
59487;BME280;45298;54.918;73.504;2022-07-22T05:45:48;98808.50;;;23.56;59.65
59487;BME280;45298;54.918;73.504;2022-07-22T05:48:21;98824.13;;;23.40;59.96
59487;BME280;45298;54.918;73.504;2022-07-22T05:50:49;98808.69;;;23.20;59.62
59487;BME280;45298;54.918;73.504;2022-07-22T05:53:18;98809.56;;;23.48;60.12
59487;BME280;45298;54.918;73.504;2022-07-22T05:55:47;98818.72;;;23.40;58.92
59487;BME280;45298;54.918;73.504;2022-07-22T05:58:18;98813.47;;;22.98;59.01
59487;BME280;45298;54.918;73.504;2022-07-22T06:00:46;98820.97;;;23.03;58.96
59487;BME280;45298;54.918;73.504;2022-07-22T06:03:15;98836.56;;;23.14;58.98
59487;BME280;45298;54.918;73.504;2022-07-22T06:05:45;98839.50;;;23.46;59.09
59487;BME280;45298;54.918;73.504;2022-07-22T06:08:15;98822.44;;;23.52;57.84
59487;BME280;45298;54.918;73.504;2022-07-22T06:10:50;98844.50;;;23.56;57.65
59487;BME280;45298;54.918;73.504;2022-07-22T06:13:20;98828.44;;;23.81;56.84
59487;BME280;45298;54.918;73.504;2022-07-22T06:15:49;98841.13;;;24.01;56.19
59487;BME280;45298;54.918;73.504;2022-07-22T06:18:19;98829.81;;;24.18;55.60
59487;BME280;45298;54.918;73.504;2022-07-22T06:20:47;98838.88;;;24.43;55.58
59487;BME280;45298;54.918;73.504;2022-07-22T06:23:16;98824.72;;;24.41;55.81
59487;BME280;45298;54.918;73.504;2022-07-22T06:25:45;98829.69;;;24.51;54.87
59487;BME280;45298;54.918;73.504;2022-07-22T06:28:43;98824.03;;;24.53;54.54
59487;BME280;45298;54.918;73.504;2022-07-22T06:31:12;98822.59;;;24.43;52.78
59487;BME280;45298;54.918;73.504;2022-07-22T06:33:42;98823.50;;;24.37;53.31
59487;BME280;45298;54.918;73.504;2022-07-22T06:36:11;98807.22;;;24.37;52.37
59487;BME280;45298;54.918;73.504;2022-07-22T06:38:40;98816.44;;;24.68;51.40
59487;BME280;45298;54.918;73.504;2022-07-22T06:41:31;98824.56;;;24.68;51.52
59487;BME280;45298;54.918;73.504;2022-07-22T06:44:19;98830.34;;;24.85;52.11
59487;BME280;45298;54.918;73.504;2022-07-22T06:47:17;98802.59;;;24.51;52.70
59487;BME280;45298;54.918;73.504;2022-07-22T06:49:46;98821.97;;;24.87;52.76
59487;BME280;45298;54.918;73.504;2022-07-22T06:52:15;98834.31;;;25.15;51.19
59487;BME280;45298;54.918;73.504;2022-07-22T06:54:44;98825.13;;;25.16;50.32
59487;BME280;45298;54.918;73.504;2022-07-22T06:57:17;98829.38;;;25.30;50.68
59487;BME280;45298;54.918;73.504;2022-07-22T06:59:46;98825.06;;;25.23;49.98
59487;BME280;45298;54.918;73.504;2022-07-22T07:02:18;98835.59;;;25.38;50.24
59487;BME280;45298;54.918;73.504;2022-07-22T07:04:47;98821.84;;;25.32;49.52
59487;BME280;45298;54.918;73.504;2022-07-22T07:07:18;98839.25;;;25.25;49.43
59487;BME280;45298;54.918;73.504;2022-07-22T07:09:55;98847.25;;;25.45;49.60
59487;BME280;45298;54.918;73.504;2022-07-22T07:12:57;98832.78;;;25.51;49.50
59487;BME280;45298;54.918;73.504;2022-07-22T07:15:40;98835.78;;;25.43;48.31
59487;BME280;45298;54.918;73.504;2022-07-22T07:18:09;98808.84;;;25.41;47.25
59487;BME280;45298;54.918;73.504;2022-07-22T07:20:39;98829.88;;;25.20;47.66
59487;BME280;45298;54.918;73.504;2022-07-22T07:23:09;98806.56;;;25.13;48.68
59487;BME280;45298;54.918;73.504;2022-07-22T07:25:42;98823.72;;;25.32;48.38
59487;BME280;45298;54.918;73.504;2022-07-22T07:28:16;98816.00;;;25.35;45.95
59487;BME280;45298;54.918;73.504;2022-07-22T07:30:53;98806.56;;;25.63;49.09
59487;BME280;45298;54.918;73.504;2022-07-22T07:33:22;98827.25;;;26.02;47.88
59487;BME280;45298;54.918;73.504;2022-07-22T07:35:52;98807.41;;;26.01;46.45
59487;BME280;45298;54.918;73.504;2022-07-22T07:38:36;98830.91;;;26.14;45.71
59487;BME280;45298;54.918;73.504;2022-07-22T07:41:09;98827.41;;;26.07;44.90
59487;BME280;45298;54.918;73.504;2022-07-22T07:43:40;98826.78;;;25.68;44.51
59487;BME280;45298;54.918;73.504;2022-07-22T07:46:10;98842.34;;;25.28;45.40
59487;BME280;45298;54.918;73.504;2022-07-22T07:48:39;98826.78;;;24.85;47.25
59487;BME280;45298;54.918;73.504;2022-07-22T07:51:08;98832.91;;;24.73;48.12
59487;BME280;45298;54.918;73.504;2022-07-22T07:53:41;98847.19;;;24.94;47.51
59487;BME280;45298;54.918;73.504;2022-07-22T07:56:11;98832.41;;;24.90;47.45
59487;BME280;45298;54.918;73.504;2022-07-22T07:58:40;98832.63;;;24.88;47.00
59487;BME280;45298;54.918;73.504;2022-07-22T08:01:30;98839.13;;;25.13;47.88
59487;BME280;45298;54.918;73.504;2022-07-22T08:04:18;98831.09;;;24.99;46.39
59487;BME280;45298;54.918;73.504;2022-07-22T08:07:07;98842.38;;;24.96;46.81
59487;BME280;45298;54.918;73.504;2022-07-22T08:09:39;98837.13;;;24.63;47.46
59487;BME280;45298;54.918;73.504;2022-07-22T08:12:17;98847.00;;;24.43;47.49
59487;BME280;45298;54.918;73.504;2022-07-22T08:15:06;98843.72;;;24.28;47.82
59487;BME280;45298;54.918;73.504;2022-07-22T08:17:55;98848.59;;;24.12;47.84
59487;BME280;45298;54.918;73.504;2022-07-22T08:20:25;98860.50;;;23.98;48.92
59487;BME280;45298;54.918;73.504;2022-07-22T08:22:54;98864.47;;;23.82;49.44
59487;BME280;45298;54.918;73.504;2022-07-22T08:25:27;98874.25;;;23.83;50.30
59487;BME280;45298;54.918;73.504;2022-07-22T08:27:56;98859.25;;;23.67;49.32
59487;BME280;45298;54.918;73.504;2022-07-22T08:30:25;98863.63;;;23.68;50.54
59487;BME280;45298;54.918;73.504;2022-07-22T08:32:57;98846.34;;;23.82;48.10
59487;BME280;45298;54.918;73.504;2022-07-22T08:35:26;98855.69;;;24.07;47.18
59487;BME280;45298;54.918;73.504;2022-07-22T08:37:55;98867.63;;;24.44;46.50
59487;BME280;45298;54.918;73.504;2022-07-22T08:40:24;98861.47;;;24.69;45.67
59487;BME280;45298;54.918;73.504;2022-07-22T08:42:53;98863.75;;;25.11;45.91
59487;BME280;45298;54.918;73.504;2022-07-22T08:45:23;98867.13;;;25.39;45.57
59487;BME280;45298;54.918;73.504;2022-07-22T08:47:52;98860.81;;;25.45;45.45
59487;BME280;45298;54.918;73.504;2022-07-22T08:50:25;98872.56;;;25.32;44.90
59487;BME280;45298;54.918;73.504;2022-07-22T08:53:26;98851.81;;;25.19;44.83
59487;BME280;45298;54.918;73.504;2022-07-22T08:56:00;98890.47;;;25.46;45.37
59487;BME280;45298;54.918;73.504;2022-07-22T08:58:29;98886.97;;;25.32;44.25
59487;BME280;45298;54.918;73.504;2022-07-22T09:01:13;98881.63;;;24.87;43.45
59487;BME280;45298;54.918;73.504;2022-07-22T09:03:51;98857.59;;;24.52;44.25
59487;BME280;45298;54.918;73.504;2022-07-22T09:06:22;98866.41;;;24.34;43.83
59487;BME280;45298;54.918;73.504;2022-07-22T09:08:57;98894.38;;;24.34;44.22
59487;BME280;45298;54.918;73.504;2022-07-22T09:11:44;98902.69;;;24.33;45.90
59487;BME280;45298;54.918;73.504;2022-07-22T09:14:45;98885.06;;;24.69;45.63
59487;BME280;45298;54.918;73.504;2022-07-22T09:17:35;98899.44;;;25.15;45.29
59487;BME280;45298;54.918;73.504;2022-07-22T09:20:31;98892.53;;;25.19;44.69
59487;BME280;45298;54.918;73.504;2022-07-22T09:23:19;98891.25;;;25.22;44.99
59487;BME280;45298;54.918;73.504;2022-07-22T09:25:55;98864.91;;;25.22;44.95
59487;BME280;45298;54.918;73.504;2022-07-22T09:28:23;98884.09;;;25.27;45.09
59487;BME280;45298;54.918;73.504;2022-07-22T09:31:26;98885.50;;;25.37;45.00
59487;BME280;45298;54.918;73.504;2022-07-22T09:34:30;98894.28;;;25.32;43.36
59487;BME280;45298;54.918;73.504;2022-07-22T09:37:20;98886.44;;;24.85;44.04
59487;BME280;45298;54.918;73.504;2022-07-22T09:39:49;98905.53;;;24.58;45.36
59487;BME280;45298;54.918;73.504;2022-07-22T09:42:19;98909.91;;;24.59;45.68
59487;BME280;45298;54.918;73.504;2022-07-22T09:44:48;98903.56;;;24.85;45.75
59487;BME280;45298;54.918;73.504;2022-07-22T09:47:28;98866.22;;;24.87;43.98
59487;BME280;45298;54.918;73.504;2022-07-22T09:50:30;98915.59;;;25.28;41.76
59487;BME280;45298;54.918;73.504;2022-07-22T09:53:25;98907.34;;;25.16;41.91
59487;BME280;45298;54.918;73.504;2022-07-22T09:56:08;98908.50;;;25.27;42.90
59487;BME280;45298;54.918;73.504;2022-07-22T09:58:38;98907.19;;;25.43;43.73
59487;BME280;45298;54.918;73.504;2022-07-22T10:01:23;98903.31;;;25.58;43.12
59487;BME280;45298;54.918;73.504;2022-07-22T10:03:53;98901.94;;;25.42;42.08
59487;BME280;45298;54.918;73.504;2022-07-22T10:06:24;98905.63;;;25.22;44.01
59487;BME280;45298;54.918;73.504;2022-07-22T10:08:55;98908.63;;;25.14;43.74
59487;BME280;45298;54.918;73.504;2022-07-22T10:11:33;98902.31;;;25.20;43.83
59487;BME280;45298;54.918;73.504;2022-07-22T10:14:05;98918.88;;;25.44;43.77
59487;BME280;45298;54.918;73.504;2022-07-22T10:16:36;98926.88;;;25.64;42.88
59487;BME280;45298;54.918;73.504;2022-07-22T10:19:05;98909.84;;;25.75;42.71
59487;BME280;45298;54.918;73.504;2022-07-22T10:21:34;98918.81;;;25.76;42.71
59487;BME280;45298;54.918;73.504;2022-07-22T10:24:13;98928.78;;;25.57;41.85
59487;BME280;45298;54.918;73.504;2022-07-22T10:26:52;98931.28;;;25.26;42.23
59487;BME280;45298;54.918;73.504;2022-07-22T10:29:45;98931.78;;;25.10;42.67
59487;BME280;45298;54.918;73.504;2022-07-22T10:40:21;98936.13;;;25.17;43.84
59487;BME280;45298;54.918;73.504;2022-07-22T10:43:04;98934.16;;;25.31;43.19
59487;BME280;45298;54.918;73.504;2022-07-22T10:45:39;98936.00;;;25.44;43.35
59487;BME280;45298;54.918;73.504;2022-07-22T10:48:10;98926.34;;;25.42;42.90
59487;BME280;45298;54.918;73.504;2022-07-22T10:50:47;98934.88;;;25.20;43.22
59487;BME280;45298;54.918;73.504;2022-07-22T10:53:21;98946.06;;;25.30;43.12
59487;BME280;45298;54.918;73.504;2022-07-22T10:56:05;98923.31;;;25.31;42.62
59487;BME280;45298;54.918;73.504;2022-07-22T11:01:07;98945.28;;;25.23;42.76
59487;BME280;45298;54.918;73.504;2022-07-22T11:03:38;98938.34;;;24.95;42.16
59487;BME280;45298;54.918;73.504;2022-07-22T11:06:19;98951.28;;;24.93;42.21
59487;BME280;45298;54.918;73.504;2022-07-22T11:09:01;98937.06;;;24.98;42.24
59487;BME280;45298;54.918;73.504;2022-07-22T11:11:44;98942.41;;;25.11;41.26
59487;BME280;45298;54.918;73.504;2022-07-22T11:14:27;98947.50;;;25.01;42.23
59487;BME280;45298;54.918;73.504;2022-07-22T11:19:36;98920.31;;;24.62;42.96
59487;BME280;45298;54.918;73.504;2022-07-22T11:22:09;98951.78;;;24.70;43.29
59487;BME280;45298;54.918;73.504;2022-07-22T11:24:40;98946.81;;;24.60;42.40
59487;BME280;45298;54.918;73.504;2022-07-22T11:27:15;98928.69;;;24.54;42.07
59487;BME280;45298;54.918;73.504;2022-07-22T11:29:48;98949.97;;;24.50;43.04
59487;BME280;45298;54.918;73.504;2022-07-22T11:32:20;98923.13;;;24.35;42.57
59487;BME280;45298;54.918;73.504;2022-07-22T11:34:56;98935.63;;;24.36;43.52
59487;BME280;45298;54.918;73.504;2022-07-22T11:37:26;98941.81;;;24.57;43.83
59487;BME280;45298;54.918;73.504;2022-07-22T11:40:01;98953.66;;;24.76;43.20
59487;BME280;45298;54.918;73.504;2022-07-22T11:42:31;98953.84;;;24.81;42.44
59487;BME280;45298;54.918;73.504;2022-07-22T11:45:01;98945.47;;;24.83;43.39
59487;BME280;45298;54.918;73.504;2022-07-22T11:47:29;98957.97;;;24.97;42.79
59487;BME280;45298;54.918;73.504;2022-07-22T11:49:58;98953.81;;;24.88;42.59
59487;BME280;45298;54.918;73.504;2022-07-22T11:52:27;98971.38;;;24.65;41.30
59487;BME280;45298;54.918;73.504;2022-07-22T11:54:56;98971.88;;;24.42;41.90
59487;BME280;45298;54.918;73.504;2022-07-22T11:57:24;98971.50;;;24.25;42.25
59487;BME280;45298;54.918;73.504;2022-07-22T11:59:53;98965.69;;;24.08;42.04
59487;BME280;45298;54.918;73.504;2022-07-22T12:02:23;98906.13;;;23.61;43.43
59487;BME280;45298;54.918;73.504;2022-07-22T12:04:52;98968.38;;;23.88;42.91
59487;BME280;45298;54.918;73.504;2022-07-22T12:07:30;98972.53;;;23.83;43.50
59487;BME280;45298;54.918;73.504;2022-07-22T12:09:59;98957.97;;;23.71;43.67
59487;BME280;45298;54.918;73.504;2022-07-22T12:12:39;98956.94;;;23.72;43.58
59487;BME280;45298;54.918;73.504;2022-07-22T12:15:11;98974.00;;;23.86;43.37
59487;BME280;45298;54.918;73.504;2022-07-22T12:18:21;98992.34;;;23.91;43.60
59487;BME280;45298;54.918;73.504;2022-07-22T12:20:51;98973.56;;;23.76;43.05
59487;BME280;45298;54.918;73.504;2022-07-22T12:23:25;98995.69;;;23.79;43.73
59487;BME280;45298;54.918;73.504;2022-07-22T12:25:57;98992.97;;;23.79;43.58
59487;BME280;45298;54.918;73.504;2022-07-22T12:28:27;98989.63;;;23.77;44.17
59487;BME280;45298;54.918;73.504;2022-07-22T12:30:56;98999.19;;;23.73;43.91
59487;BME280;45298;54.918;73.504;2022-07-22T12:33:27;98987.09;;;23.42;44.85
59487;BME280;45298;54.918;73.504;2022-07-22T12:36:06;99006.84;;;23.36;44.69
59487;BME280;45298;54.918;73.504;2022-07-22T12:38:35;98998.91;;;23.28;45.07
59487;BME280;45298;54.918;73.504;2022-07-22T12:41:26;99002.25;;;23.30;44.95
59487;BME280;45298;54.918;73.504;2022-07-22T12:43:58;98990.16;;;23.26;44.33
59487;BME280;45298;54.918;73.504;2022-07-22T12:46:28;99002.47;;;23.35;44.24
59487;BME280;45298;54.918;73.504;2022-07-22T12:48:58;98976.59;;;23.19;43.83
59487;BME280;45298;54.918;73.504;2022-07-22T12:51:29;99003.72;;;23.32;44.22
59487;BME280;45298;54.918;73.504;2022-07-22T12:53:58;99008.28;;;23.25;43.75
59487;BME280;45298;54.918;73.504;2022-07-22T12:56:28;98986.75;;;23.10;43.79
59487;BME280;45298;54.918;73.504;2022-07-22T12:59:02;99009.91;;;23.19;43.73
59487;BME280;45298;54.918;73.504;2022-07-22T13:01:31;99007.38;;;23.18;44.24
59487;BME280;45298;54.918;73.504;2022-07-22T13:04:00;99019.69;;;23.20;44.23
59487;BME280;45298;54.918;73.504;2022-07-22T13:06:29;99008.41;;;23.17;44.58
59487;BME280;45298;54.918;73.504;2022-07-22T13:08:58;98974.41;;;22.87;44.40
59487;BME280;45298;54.918;73.504;2022-07-22T13:11:27;99003.59;;;22.99;44.04
59487;BME280;45298;54.918;73.504;2022-07-22T13:13:55;99020.44;;;23.01;43.44
59487;BME280;45298;54.918;73.504;2022-07-22T13:16:24;99013.75;;;22.97;43.24
59487;BME280;45298;54.918;73.504;2022-07-22T13:18:54;99004.59;;;22.91;43.58
59487;BME280;45298;54.918;73.504;2022-07-22T13:21:23;98988.72;;;22.74;43.84
59487;BME280;45298;54.918;73.504;2022-07-22T13:23:51;99011.19;;;22.82;43.34
59487;BME280;45298;54.918;73.504;2022-07-22T13:26:20;99015.78;;;22.81;42.42
59487;BME280;45298;54.918;73.504;2022-07-22T13:28:52;99015.75;;;22.74;43.31
59487;BME280;45298;54.918;73.504;2022-07-22T13:31:27;99008.75;;;22.52;43.10